Time;durP1;ratioP1;P1;durP2;ratioP2;P2;SDS_P1;SDS_P2;PMS_P1;PMS_P2;Temp;Humidity;BMP_temperature;BMP_pressure;BME280_temperature;BME280_humidity;BME280_pressure;Samples;Min_cycle;Max_cycle;Signal;HPM_P1;HPM_P2
2022/05/03 00:01:04;;;;;;;6.80;4.32;;;;;;;13.27;64.86;97134.97;5056319;28;20111;-87
2022/05/03 00:03:44;;;;;;;8.43;4.65;;;;;;;13.33;65.12;97145.22;5039135;28;20041;-87
2022/05/03 00:06:10;;;;;;;6.65;4.30;;;;;;;13.27;65.42;97144.84;5039904;28;20132;-88
2022/05/03 00:08:53;;;;;;;5.22;4.18;;;;;;;13.09;65.93;97114.94;5072723;28;20060;-88
2022/05/03 00:11:45;;;;;;;6.82;4.90;;;;;;;13.25;66.32;97147.66;5039031;28;20036;-87
2022/05/03 00:14:20;;;;;;;6.40;3.75;;;;;;;13.16;66.54;97148.41;5053247;28;20480;-86
2022/05/03 00:16:49;;;;;;;7.88;4.85;;;;;;;13.01;66.62;97112.81;5056384;28;20032;-87
2022/05/03 00:19:15;;;;;;;6.28;4.50;;;;;;;13.05;67.15;97121.47;5054737;28;20076;-88
2022/05/03 00:21:41;;;;;;;7.28;4.95;;;;;;;13.07;67.13;97125.75;5038158;28;20064;-88
2022/05/03 00:24:07;;;;;;;9.23;4.78;;;;;;;12.97;67.47;97106.00;5037834;28;20029;-88
2022/05/03 00:26:34;;;;;;;7.40;4.88;;;;;;;13.04;67.12;97134.03;5040214;28;20497;-87
2022/05/03 00:29:00;;;;;;;6.40;4.75;;;;;;;12.95;67.43;97124.03;5037676;28;20029;-88
2022/05/03 00:31:27;;;;;;;5.18;4.00;;;;;;;12.97;66.93;97113.19;5038422;28;20094;-88
2022/05/03 00:33:54;;;;;;;5.50;4.32;;;;;;;13.08;67.30;97134.69;5037475;28;20125;-88
2022/05/03 00:36:21;;;;;;;7.20;4.55;;;;;;;12.79;67.78;97093.16;5038088;28;20032;-89
2022/05/03 00:38:47;;;;;;;8.13;4.70;;;;;;;12.90;67.86;97125.38;5038820;28;20131;-89
2022/05/03 00:41:34;;;;;;;9.38;4.78;;;;;;;12.84;67.94;97118.66;5055991;28;20056;-88
2022/05/03 00:47:19;;;;;;;5.72;4.15;;;;;;;12.93;66.87;97127.81;5061203;28;20102;-88
2022/05/03 00:50:02;;;;;;;6.63;4.45;;;;;;;12.88;67.10;97124.66;5045154;28;20029;-89
2022/05/03 00:52:47;;;;;;;7.47;4.30;;;;;;;12.96;66.37;97136.47;5045703;28;20542;-88
2022/05/03 00:55:54;;;;;;;5.57;4.53;;;;;;;12.92;66.79;97128.81;5075008;28;20098;-86
2022/05/03 00:58:48;;;;;;;5.13;4.18;;;;;;;12.93;67.02;97141.22;5045468;28;20039;-86
2022/05/03 01:01:20;;;;;;;6.22;4.30;;;;;;;12.88;67.63;97138.06;5061735;28;20032;-88
2022/05/03 01:04:07;;;;;;;14.97;4.20;;;;;;;12.80;67.59;97132.41;5078558;28;20480;-87
2022/05/03 01:06:37;;;;;;;7.60;4.43;;;;;;;12.81;67.63;97128.75;5078592;28;20025;-88
2022/05/03 01:09:07;;;;;;;6.82;4.47;;;;;;;12.80;68.03;97137.78;5062633;28;20029;-88
2022/05/03 01:11:50;;;;;;;6.05;3.97;;;;;;;12.61;67.56;97110.69;5046257;28;20025;-86
2022/05/03 01:14:21;;;;;;;5.45;4.13;;;;;;;12.80;66.97;97135.97;5078581;28;20477;-86
2022/05/03 01:16:50;;;;;;;7.73;4.33;;;;;;;12.78;67.46;97137.06;5078960;28;20037;-87
2022/05/03 01:20:04;;;;;;;5.50;4.22;;;;;;;12.74;67.31;97124.84;5077187;28;20314;-88
2022/05/03 01:23:07;;;;;;;5.15;4.03;;;;;;;12.72;68.38;97140.22;5039491;28;20056;-88
2022/05/03 01:25:48;;;;;;;6.47;3.88;;;;;;;12.71;69.35;97141.19;5078052;28;20408;-88
2022/05/03 01:28:46;;;;;;;5.45;4.30;;;;;;;12.66;68.93;97144.22;5078997;28;20408;-88
2022/05/03 01:31:13;;;;;;;6.32;3.75;;;;;;;12.52;68.33;97115.75;5078901;28;20033;-88
2022/05/03 01:33:42;;;;;;;6.63;3.90;;;;;;;12.47;68.54;97117.94;5043670;28;20033;-88
2022/05/03 01:36:09;;;;;;;6.47;3.22;;;;;;;12.58;68.65;97135.06;5062621;28;20075;-88
2022/05/03 01:38:46;;;;;;;4.63;3.45;;;;;;;12.54;68.46;97133.56;5043335;28;20056;-88
2022/05/03 01:41:31;;;;;;;7.32;3.67;;;;;;;12.52;68.81;97131.84;5077619;28;20025;-89
2022/05/03 01:44:08;;;;;;;7.10;3.92;;;;;;;12.39;69.69;97125.75;5073757;28;20029;-89
2022/05/03 01:46:38;;;;;;;4.47;3.40;;;;;;;12.41;69.53;97128.28;5076738;28;20029;-89
2022/05/03 01:52:40;;;;;;;5.32;3.42;;;;;;;12.34;70.29;97127.91;5044364;28;20064;-89
2022/05/03 01:55:36;;;;;;;5.43;3.67;;;;;;;12.20;70.27;97117.38;5051511;28;20044;-90
2022/05/03 01:58:21;;;;;;;8.00;3.38;;;;;;;12.31;69.43;97111.16;5073251;28;20024;-89
2022/05/03 02:01:13;;;;;;;4.53;3.60;;;;;;;12.16;69.92;97098.94;5076603;28;20024;-89
2022/05/03 02:03:49;;;;;;;3.72;2.97;;;;;;;12.26;70.11;97116.91;5048272;28;20037;-89
2022/05/03 02:06:16;;;;;;;6.18;3.63;;;;;;;12.03;69.50;97096.31;5057213;28;20037;-88
2022/05/03 02:09:04;;;;;;;4.72;3.30;;;;;;;12.21;69.39;97121.75;5059139;28;20028;-90
2022/05/03 02:11:53;;;;;;;4.57;3.33;;;;;;;12.18;69.75;97121.13;5059592;28;20036;-89
2022/05/03 02:14:45;;;;;;;3.53;3.08;;;;;;;12.04;68.34;97103.41;5075521;28;20489;-88
2022/05/03 02:17:40;;;;;;;4.13;3.17;;;;;;;12.20;67.75;97129.91;5053136;28;20086;-89
2022/05/03 02:20:43;;;;;;;7.00;3.10;;;;;;;12.19;67.01;97120.16;5072629;28;20290;-89
2022/05/03 02:23:20;;;;;;;5.82;3.10;;;;;;;12.19;66.90;97123.69;5070352;28;20499;-88
2022/05/03 02:26:18;;;;;;;4.00;2.47;;;;;;;12.19;66.03;97128.19;5056024;28;20396;-88
2022/05/03 02:29:15;;;;;;;3.35;2.55;;;;;;;12.18;65.48;97126.50;5058189;28;20013;-89
2022/05/03 02:32:03;;;;;;;3.80;2.95;;;;;;;12.15;65.31;97111.47;5057116;28;20029;-89
2022/05/03 02:34:54;;;;;;;4.30;2.70;;;;;;;12.17;65.13;97122.97;5058130;28;20029;-88
2022/05/03 02:37:25;;;;;;;4.43;2.78;;;;;;;12.11;65.80;97127.94;5056357;28;20080;-89
2022/05/03 02:40:00;;;;;;;5.88;3.05;;;;;;;12.04;65.34;97118.63;5041989;28;20522;-89
2022/05/03 02:42:26;;;;;;;4.30;2.60;;;;;;;12.11;65.20;97130.59;5040450;28;20029;-90
2022/05/03 02:44:55;;;;;;;5.32;2.45;;;;;;;12.03;65.33;97111.56;5041678;28;20033;-90
2022/05/03 02:47:43;;;;;;;4.75;3.25;;;;;;;12.07;65.37;97123.75;5039721;28;20492;-90
2022/05/03 02:50:12;;;;;;;3.35;2.53;;;;;;;12.05;65.60;97121.19;5066145;28;20048;-89
2022/05/03 02:53:17;;;;;;;4.43;2.88;;;;;;;12.06;65.66;97130.94;5042679;28;20029;-89
2022/05/03 02:55:42;;;;;;;4.03;2.90;;;;;;;12.00;65.39;97109.94;5040494;28;20037;-89
2022/05/03 02:58:45;;;;;;;3.88;3.00;;;;;;;12.10;65.09;97121.69;5077532;28;20036;-90
2022/05/03 03:04:32;;;;;;;5.50;2.90;;;;;;;11.93;63.92;97108.72;5045328;28;20056;-90
2022/05/03 03:06:59;;;;;;;3.55;2.53;;;;;;;11.81;62.98;97102.41;5059695;28;20068;-90
2022/05/03 03:10:02;;;;;;;4.43;2.40;;;;;;;11.88;63.48;97127.81;5067790;28;20029;-91
2022/05/03 03:12:33;;;;;;;3.75;2.30;;;;;;;11.64;64.15;97093.88;5038405;28;20044;-90
2022/05/03 03:15:08;;;;;;;4.53;2.80;;;;;;;11.75;64.70;97134.19;5079002;28;20029;-90
2022/05/03 03:17:46;;;;;;;3.58;2.67;;;;;;;11.65;64.99;97117.03;5039191;28;20032;-90
2022/05/03 03:20:13;;;;;;;4.47;2.70;;;;;;;11.70;64.74;97130.97;5044177;28;20144;-90
2022/05/03 03:22:45;;;;;;;8.18;2.88;;;;;;;11.56;65.97;97139.13;5045437;28;20028;-90
2022/05/03 03:25:14;;;;;;;3.10;2.60;;;;;;;11.38;65.39;97119.91;5056723;28;20488;-89
2022/05/03 03:27:42;;;;;;;3.70;2.60;;;;;;;11.40;66.40;97124.19;5041566;28;20033;-90
2022/05/03 03:30:09;;;;;;;3.67;2.78;;;;;;;11.36;66.15;97119.13;5057654;28;20114;-89
2022/05/03 03:32:36;;;;;;;3.65;2.78;;;;;;;11.47;65.93;97129.09;5041523;28;20024;-89
2022/05/03 03:35:03;;;;;;;3.75;2.67;;;;;;;11.53;65.20;97128.66;5038876;28;20488;-89
2022/05/03 03:37:30;;;;;;;5.18;2.70;;;;;;;11.59;65.05;97137.09;5041501;28;20104;-89
2022/05/03 03:39:57;;;;;;;4.30;2.38;;;;;;;11.58;64.31;97139.88;5041587;28;20021;-90
2022/05/03 03:42:23;;;;;;;3.85;2.60;;;;;;;11.55;64.41;97142.78;5057259;28;20052;-87
2022/05/03 03:44:49;;;;;;;3.72;2.50;;;;;;;11.66;64.46;97148.22;5039637;28;20025;-88
2022/05/03 03:47:15;;;;;;;5.35;2.80;;;;;;;11.53;63.68;97134.00;5045914;28;20071;-90
2022/05/03 03:49:41;;;;;;;5.10;2.53;;;;;;;11.46;63.63;97127.38;5043332;28;20053;-89
2022/05/03 03:52:08;;;;;;;3.53;2.72;;;;;;;11.50;64.52;97136.91;5058964;28;20041;-89
2022/05/03 03:54:37;;;;;;;5.18;3.03;;;;;;;11.54;63.56;97146.41;5043524;28;20036;-89
2022/05/03 03:57:04;;;;;;;3.72;2.80;;;;;;;11.51;62.55;97141.28;5042127;28;20036;-89
2022/05/03 03:59:33;;;;;;;2.90;2.60;;;;;;;11.47;63.05;97138.00;5059006;28;20495;-89
2022/05/03 04:02:00;;;;;;;7.32;4.00;;;;;;;11.55;63.05;97143.63;5060399;28;20024;-88
2022/05/03 04:04:44;;;;;;;;;;;;;;;;;;;;;
2022/05/03 04:07:11;;;;;;;7.25;3.30;;;;;;;11.37;61.15;97124.41;5061293;28;20085;-88
2022/05/03 04:09:36;;;;;;;4.05;2.53;;;;;;;11.57;60.19;97146.19;5039569;28;20021;-87
2022/05/03 04:12:04;;;;;;;3.40;2.55;;;;;;;11.57;59.91;97146.19;5050534;28;20029;-75
2022/05/03 04:14:30;;;;;;;6.18;2.47;;;;;;;11.58;60.58;97158.63;5049316;28;20052;-75
2022/05/03 04:16:56;;;;;;;3.60;2.65;;;;;;;11.61;60.15;97150.38;5050372;28;20021;-81
2022/05/03 04:19:23;;;;;;;6.90;2.70;;;;;;;11.57;60.33;97151.53;5048471;28;20095;-76
2022/05/03 04:21:49;;;;;;;3.13;2.55;;;;;;;11.58;60.75;97170.19;5049266;28;20400;-74
2022/05/03 04:24:15;;;;;;;3.78;2.08;;;;;;;11.54;59.79;97170.50;5049306;28;20400;-74
2022/05/03 04:26:41;;;;;;;2.40;2.20;;;;;;;11.52;59.40;97165.28;5050635;28;20029;-74
2022/05/03 04:29:06;;;;;;;4.75;2.50;;;;;;;11.50;60.35;97172.59;5049478;28;20024;-75
2022/05/03 04:31:33;;;;;;;5.75;2.65;;;;;;;11.53;59.10;97158.09;5049433;28;20052;-76
2022/05/03 04:34:00;;;;;;;6.15;2.42;;;;;;;11.53;59.07;97166.16;5032728;28;20041;-77
2022/05/03 04:36:26;;;;;;;7.05;3.88;;;;;;;11.58;58.75;97169.34;5049768;28;20465;-76
2022/05/03 04:38:52;;;;;;;4.82;3.10;;;;;;;11.68;58.59;97171.25;5049166;28;20036;-76
2022/05/03 04:41:21;;;;;;;5.78;3.05;;;;;;;11.74;57.91;97164.63;5031186;28;20557;-77
2022/05/03 04:43:46;;;;;;;6.35;3.38;;;;;;;11.84;57.37;97166.50;5048267;28;20021;-77
2022/05/03 04:46:12;;;;;;;5.47;2.90;;;;;;;11.91;56.54;97174.94;5048959;28;20106;-76
2022/05/03 04:48:38;;;;;;;4.22;2.45;;;;;;;12.03;56.20;97175.91;5049323;28;20028;-77
2022/05/03 04:51:04;;;;;;;7.03;3.25;;;;;;;11.92;57.24;97174.00;5029655;28;20039;-77
2022/05/03 04:53:29;;;;;;;4.78;2.78;;;;;;;11.90;57.84;97181.31;5049779;28;20036;-77
2022/05/03 04:55:55;;;;;;;5.03;2.97;;;;;;;11.96;57.40;97183.53;5048911;28;20389;-77
2022/05/03 04:58:20;;;;;;;5.50;3.42;;;;;;;12.02;62.14;97206.34;5032448;28;20086;-77
2022/05/03 05:00:46;;;;;;;5.80;3.00;;;;;;;12.12;59.98;97202.84;5048833;28;20028;-77
2022/05/03 05:03:13;;;;;;;6.07;3.33;;;;;;;12.31;61.06;97203.22;5049126;28;20381;-77
2022/05/03 05:05:38;;;;;;;9.00;4.18;;;;;;;12.62;64.40;97215.19;5045082;28;20459;-78
2022/05/03 05:08:05;;;;;;;6.60;4.80;;;;;;;12.97;65.63;97217.88;5047937;28;20033;-76
2022/05/03 05:10:32;;;;;;;7.43;5.30;;;;;;;13.15;65.91;97221.00;5048403;28;20473;-76
2022/05/03 05:13:00;;;;;;;10.73;5.13;;;;;;;13.34;64.70;97226.66;5049042;28;20409;-76
2022/05/03 05:15:25;;;;;;;9.48;5.45;;;;;;;13.21;64.95;97220.53;5049093;28;20552;-76
2022/05/03 05:17:52;;;;;;;7.72;5.28;;;;;;;13.05;65.43;97221.69;5048520;28;20108;-76
2022/05/03 05:20:18;;;;;;;6.47;4.72;;;;;;;13.03;65.88;97223.66;5048237;28;20045;-76
2022/05/03 05:22:44;;;;;;;6.05;4.65;;;;;;;13.17;65.96;97222.59;5048645;28;20050;-76
2022/05/03 05:25:10;;;;;;;10.23;4.10;;;;;;;13.04;63.20;97211.06;5031912;28;20032;-76
2022/05/03 05:27:36;;;;;;;5.93;3.25;;;;;;;13.05;61.15;97219.00;5032168;28;20037;-76
2022/05/03 05:30:04;;;;;;;5.30;3.70;;;;;;;13.11;61.57;97217.69;5048525;28;20544;-76
2022/05/03 05:32:29;;;;;;;5.57;3.65;;;;;;;13.10;62.77;97237.50;5050432;28;20031;-76
2022/05/03 05:34:55;;;;;;;6.22;3.60;;;;;;;13.01;62.41;97235.47;5052060;28;20025;-75
2022/05/03 05:37:21;;;;;;;10.10;5.82;;;;;;;12.98;59.71;97233.03;5052359;28;20151;-76
2022/05/03 05:39:46;;;;;;;4.53;3.60;;;;;;;13.06;60.88;97235.97;5052490;28;20373;-75
2022/05/03 05:42:13;;;;;;;4.18;3.10;;;;;;;13.07;59.27;97234.16;5052225;28;20055;-75
2022/05/03 05:44:38;;;;;;;4.22;2.85;;;;;;;13.21;58.57;97231.28;5052484;28;20052;-76
2022/05/03 05:47:07;;;;;;;4.35;2.85;;;;;;;13.18;58.05;97227.00;5052547;28;20044;-75
2022/05/03 05:49:33;;;;;;;7.00;3.72;;;;;;;13.26;59.08;97246.06;5053127;28;20455;-76
2022/05/03 05:54:43;;;;;;;4.28;2.85;;;;;;;13.29;56.57;97234.25;5052793;28;20569;-75
2022/05/03 05:57:09;;;;;;;3.15;2.60;;;;;;;13.21;57.13;97236.66;5068703;28;20029;-76
2022/05/03 05:59:34;;;;;;;7.60;3.20;;;;;;;13.22;56.88;97249.97;5052818;28;20027;-75
2022/05/03 06:02:00;;;;;;;8.98;3.08;;;;;;;13.31;57.70;97253.78;5052346;28;20040;-76
2022/05/03 06:04:27;;;;;;;4.63;3.25;;;;;;;13.29;57.10;97245.81;5051656;28;20051;-76
2022/05/03 06:06:54;;;;;;;4.75;2.75;;;;;;;13.55;56.03;97244.66;5052193;28;20025;-76
2022/05/03 06:09:20;;;;;;;5.72;3.08;;;;;;;13.71;55.79;97254.19;5051889;28;20516;-76
2022/05/03 06:11:45;;;;;;;4.13;2.67;;;;;;;13.98;54.09;97257.38;5052202;28;20051;-75
2022/05/03 06:14:11;;;;;;;4.50;2.65;;;;;;;14.36;52.26;97248.91;5051692;28;20029;-75
2022/05/03 06:16:49;;;;;;;4.32;2.83;;;;;;;14.45;51.79;97254.41;5051847;28;20451;-76
2022/05/03 06:19:15;;;;;;;6.30;4.35;;;;;;;14.32;52.25;97259.03;5052740;28;20069;-75
2022/05/03 06:21:41;;;;;;;13.65;8.52;;;;;;;14.33;52.34;97268.00;5053192;28;20060;-75
2022/05/03 06:24:06;;;;;;;5.90;2.50;;;;;;;14.35;51.95;97274.09;5051701;28;20523;-75
2022/05/03 06:26:32;;;;;;;4.03;2.80;;;;;;;14.20;52.44;97269.94;5052593;28;20021;-75
2022/05/03 06:28:59;;;;;;;2.50;2.10;;;;;;;14.05;52.85;97285.47;5052881;28;20032;-75
2022/05/03 06:31:24;;;;;;;5.30;3.53;;;;;;;13.67;54.97;97310.00;5052422;28;20025;-75
2022/05/03 06:33:50;;;;;;;11.20;6.78;;;;;;;13.54;58.63;97320.00;5034798;28;20066;-75
2022/05/03 06:36:17;;;;;;;4.75;3.65;;;;;;;13.50;59.81;97330.13;5051216;28;20028;-75
2022/05/03 06:38:43;;;;;;;8.88;4.50;;;;;;;13.37;61.46;97339.25;5051566;28;20080;-76
2022/05/03 06:41:09;;;;;;;11.07;5.10;;;;;;;13.15;65.67;97356.16;5051249;28;20048;-76
2022/05/03 06:43:35;;;;;;;12.73;4.68;;;;;;;12.98;67.60;97359.22;5050799;28;20504;-75
2022/05/03 06:46:01;;;;;;;19.77;6.00;;;;;;;12.50;72.22;97359.16;5051045;28;20025;-76
2022/05/03 06:48:27;;;;;;;13.18;4.95;;;;;;;12.15;74.97;97358.16;5051066;28;20123;-75
2022/05/03 06:50:52;;;;;;;9.52;5.38;;;;;;;12.09;78.42;97369.31;5051210;28;20021;-75
2022/05/03 06:53:18;;;;;;;4.85;3.80;;;;;;;11.96;78.12;97363.13;5052352;28;20527;-75
2022/05/03 06:55:44;;;;;;;8.45;4.47;;;;;;;11.68;82.30;97364.16;5051268;28;20021;-75
2022/05/03 06:58:09;;;;;;;9.23;4.28;;;;;;;11.69;84.46;97368.53;5050836;28;20039;-76
2022/05/03 07:00:35;;;;;;;4.75;3.58;;;;;;;11.61;80.95;97378.06;5051980;28;20032;-75
2022/05/03 07:03:00;;;;;;;4.75;3.50;;;;;;;11.40;81.72;97386.63;5050970;28;20473;-75
2022/05/03 07:05:26;;;;;;;5.57;3.80;;;;;;;11.39;83.82;97378.66;5050836;28;20373;-75
2022/05/03 07:07:52;;;;;;;8.93;5.05;;;;;;;11.41;85.94;97377.59;5051030;28;20032;-75
2022/05/03 07:10:17;;;;;;;8.00;4.57;;;;;;;11.40;88.04;97388.44;5052095;28;20036;-75
2022/05/03 07:12:45;;;;;;;6.07;4.28;;;;;;;11.40;85.44;97386.63;5051623;28;20417;-74
2022/05/03 07:15:10;;;;;;;7.95;5.93;;;;;;;11.28;90.20;97378.56;5051109;28;20352;-75
2022/05/03 07:23:06;;;;;;;5.50;3.42;;;;;;;11.21;90.81;97386.13;5050729;28;20107;-75
2022/05/03 07:25:32;;;;;;;11.10;3.40;;;;;;;11.30;91.54;97385.50;5050344;28;20027;-75
2022/05/03 07:27:58;;;;;;;4.93;3.63;;;;;;;11.31;88.72;97389.91;5050538;28;20025;-75
2022/05/03 07:30:24;;;;;;;6.43;3.92;;;;;;;11.23;88.11;97389.56;5051862;28;20024;-74
2022/05/03 07:32:49;;;;;;;18.20;9.90;;;;;;;11.10;86.63;97385.13;5033471;28;20115;-75
2022/05/03 07:35:15;;;;;;;19.08;7.88;;;;;;;11.33;88.50;97387.97;5033558;28;20115;-74
2022/05/03 07:37:41;;;;;;;25.00;5.15;;;;;;;11.31;87.48;97387.25;5033951;28;20543;-74
2022/05/03 07:40:09;;;;;;;16.23;8.18;;;;;;;11.26;92.84;97383.13;5050080;28;20093;-74
2022/05/03 07:42:34;;;;;;;20.77;12.65;;;;;;;11.26;95.46;97367.94;5049930;28;20478;-75
2022/05/03 07:45:00;;;;;;;13.75;9.30;;;;;;;11.19;89.75;97361.28;5051120;28;20166;-74
2022/05/03 07:47:26;;;;;;;8.57;5.15;;;;;;;11.25;93.25;97339.47;5050044;28;20033;-74
2022/05/03 07:49:53;;;;;;;8.48;5.35;;;;;;;11.34;97.34;97322.75;5050858;28;20035;-75
2022/05/03 07:52:19;;;;;;;6.65;4.70;;;;;;;11.67;95.82;97335.63;5049951;28;20028;-74
2022/05/03 07:54:44;;;;;;;24.95;9.95;;;;;;;11.91;90.91;97352.72;5048995;28;20496;-75
2022/05/03 07:57:12;;;;;;;12.57;6.32;;;;;;;12.31;88.44;97358.78;5033066;28;20041;-74
2022/05/03 07:59:39;;;;;;;9.05;5.43;;;;;;;12.78;85.94;97354.44;5049755;28;20029;-74
2022/05/03 08:02:04;;;;;;;7.35;4.32;;;;;;;13.36;79.59;97359.03;5049600;28;20082;-74
2022/05/03 08:04:30;;;;;;;9.20;4.45;;;;;;;14.03;75.03;97343.91;5051005;28;20545;-74
2022/05/03 08:06:55;;;;;;;6.82;3.53;;;;;;;14.88;73.50;97347.78;5050603;28;20113;-74
2022/05/03 08:09:21;;;;;;;6.80;3.50;;;;;;;15.67;68.57;97353.63;5050916;28;20032;-75
2022/05/03 08:11:47;;;;;;;5.40;3.28;;;;;;;16.10;65.67;97342.66;5049679;28;20029;-75
2022/05/03 08:14:12;;;;;;;5.82;3.42;;;;;;;16.62;59.27;97333.53;5032903;28;20083;-75
2022/05/03 08:16:38;;;;;;;16.27;10.32;;;;;;;17.09;58.42;97333.78;5049636;28;20427;-75
2022/05/03 08:19:05;;;;;;;4.93;3.38;;;;;;;17.48;55.49;97335.50;5049217;28;20044;-75
2022/05/03 08:21:32;;;;;;;3.72;2.38;;;;;;;17.75;51.82;97323.97;5049634;28;20032;-74
2022/05/03 08:24:02;;;;;;;2.42;2.20;;;;;;;18.59;47.86;97308.63;5049750;28;20029;-76
2022/05/03 08:26:29;;;;;;;2.65;2.20;;;;;;;19.24;47.68;97318.34;5049250;28;20048;-75
2022/05/03 08:28:58;;;;;;;4.93;3.38;;;;;;;20.17;43.84;97301.50;5049507;28;20029;-74
2022/05/03 08:31:24;;;;;;;2.13;1.70;;;;;;;20.23;43.23;97292.72;5050688;28;20033;-75
2022/05/03 08:33:49;;;;;;;3.47;2.80;;;;;;;19.89;48.89;97336.97;5032433;28;20128;-75
2022/05/03 08:36:15;;;;;;;4.57;3.42;;;;;;;19.70;49.52;97342.56;5049174;28;20469;-75
2022/05/03 08:44:09;;;;;;;5.50;2.88;;;;;;;19.15;48.18;97338.25;5049434;28;20110;-75
2022/05/03 08:46:36;;;;;;;5.57;3.30;;;;;;;18.62;50.43;97352.53;5049047;28;20469;-74
2022/05/03 08:49:04;;;;;;;3.20;2.78;;;;;;;17.98;50.59;97354.28;5049253;28;20029;-75
2022/05/03 08:51:31;;;;;;;5.22;3.13;;;;;;;18.23;50.87;97353.66;5048981;28;20040;-74
2022/05/03 08:53:59;;;;;;;7.40;4.20;;;;;;;17.99;50.45;97350.59;5050505;28;20029;-74
2022/05/03 08:56:25;;;;;;;5.35;2.90;;;;;;;18.06;49.03;97343.56;5049088;28;20052;-75
2022/05/03 08:58:51;;;;;;;6.82;4.07;;;;;;;17.78;51.58;97356.19;5049238;28;20499;-74
2022/05/03 09:01:18;;;;;;;11.15;7.45;;;;;;;17.12;51.23;97355.13;5032660;28;20024;-74
2022/05/03 09:03:44;;;;;;;3.33;2.28;;;;;;;17.42;51.32;97352.28;5049030;28;20028;-74
2022/05/03 09:06:10;;;;;;;8.15;3.13;;;;;;;17.35;51.61;97352.00;5050260;28;20036;-74
2022/05/03 09:08:36;;;;;;;6.28;2.17;;;;;;;16.79;51.54;97354.50;5053048;28;20032;-75
2022/05/03 09:11:15;;;;;;;7.60;2.53;;;;;;;16.61;53.63;97363.41;5052973;28;20033;-76
2022/05/03 09:13:42;;;;;;;3.80;2.78;;;;;;;16.52;55.13;97372.28;5052861;28;20522;-75
2022/05/03 09:16:12;;;;;;;6.82;2.55;;;;;;;16.74;56.09;97367.53;5052677;28;20037;-76
2022/05/03 09:18:37;;;;;;;11.18;2.80;;;;;;;17.00;53.50;97358.94;5054354;28;20020;-76
2022/05/03 09:24:03;;;;;;;7.70;2.85;;;;;;;16.78;54.45;97371.69;5054031;28;20031;-75
2022/05/03 09:26:30;;;;;;;8.87;4.17;;;;;;;16.37;55.10;97365.50;5052616;28;20056;-76
2022/05/03 09:29:05;;;;;;;17.65;11.05;;;;;;;15.54;56.72;97379.91;5053083;28;20024;-75
2022/05/03 09:31:41;;;;;;;9.00;4.32;;;;;;;16.16;56.29;97387.16;5052678;28;20028;-74
2022/05/03 09:34:25;;;;;;;8.38;4.50;;;;;;;16.54;54.47;97375.69;5053496;28;20489;-74
2022/05/03 09:37:09;;;;;;;5.35;3.60;;;;;;;16.94;55.81;97368.47;5053984;28;20112;-73
2022/05/03 09:39:43;;;;;;;7.68;2.40;;;;;;;17.07;52.78;97365.50;5040828;28;20087;-74
2022/05/03 09:42:09;;;;;;;19.10;2.97;;;;;;;17.13;52.19;97367.66;5036969;28;20028;-75
2022/05/03 09:44:50;;;;;;;9.50;3.28;;;;;;;17.37;51.26;97359.13;5069295;28;20020;-75
2022/05/03 09:47:17;;;;;;;6.65;2.67;;;;;;;16.67;52.68;97366.38;5052612;28;20498;-75
2022/05/03 09:49:43;;;;;;;10.00;3.30;;;;;;;17.11;53.08;97364.22;5035932;28;20021;-75
2022/05/03 09:52:26;;;;;;;7.53;2.92;;;;;;;17.15;53.63;97361.09;5051962;28;20020;-74
2022/05/03 09:54:52;;;;;;;8.52;3.60;;;;;;;16.92;52.32;97356.91;5052692;28;20108;-73
2022/05/03 09:57:22;;;;;;;11.63;3.17;;;;;;;16.53;52.66;97357.78;5052833;28;20112;-74
2022/05/03 09:59:49;;;;;;;9.93;3.60;;;;;;;17.17;51.38;97355.53;5051940;28;20036;-75
2022/05/03 10:02:20;;;;;;;5.53;2.78;;;;;;;17.32;52.06;97362.25;5052159;28;20024;-76
2022/05/03 10:04:51;;;;;;;4.88;3.00;;;;;;;17.39;52.96;97362.53;5053295;28;20013;-75
2022/05/03 10:07:17;;;;;;;3.63;2.60;;;;;;;17.06;50.75;97361.94;5038076;28;20043;-75
2022/05/03 10:09:44;;;;;;;9.20;2.60;;;;;;;17.75;51.23;97353.72;5035129;28;20029;-75
2022/05/03 10:12:11;;;;;;;5.35;2.67;;;;;;;17.23;51.99;97360.38;5052910;28;20025;-75
2022/05/03 10:14:38;;;;;;;9.20;2.60;;;;;;;17.66;50.54;97355.44;5051509;28;20033;-75
2022/05/03 10:22:37;;;;;;;4.40;2.08;;;;;;;17.91;47.76;97331.50;5065902;28;20040;-75
2022/05/03 10:25:04;;;;;;;4.28;2.08;;;;;;;17.52;47.86;97334.22;5051160;28;20041;-75
2022/05/03 10:27:32;;;;;;;2.13;1.80;;;;;;;17.05;49.48;97338.59;5035012;28;20021;-75
2022/05/03 10:30:16;;;;;;;6.85;1.85;;;;;;;17.13;49.12;97352.28;5051527;28;20025;-74
2022/05/03 10:32:42;;;;;;;6.30;1.70;;;;;;;17.04;49.13;97352.28;5051635;28;20029;-74
2022/05/03 10:35:34;;;;;;;4.78;1.55;;;;;;;17.08;49.85;97353.69;5051024;28;20092;-75
2022/05/03 10:38:00;;;;;;;3.28;1.75;;;;;;;17.13;49.46;97355.00;5049375;28;20492;-75
2022/05/03 10:40:34;;;;;;;6.88;2.85;;;;;;;16.70;49.85;97346.38;5067855;28;20110;-75
2022/05/03 10:43:27;;;;;;;8.70;2.40;;;;;;;16.64;49.43;97350.44;5051234;28;20040;-74
2022/05/03 10:45:54;;;;;;;10.57;2.40;;;;;;;16.53;50.80;97353.22;5045815;28;20037;-74
2022/05/03 10:48:28;;;;;;;10.23;2.47;;;;;;;16.54;49.57;97349.59;5050675;28;20385;-74
2022/05/03 10:51:00;;;;;;;7.07;3.08;;;;;;;16.36;51.03;97356.59;5050693;28;20112;-74
2022/05/03 10:53:27;;;;;;;13.48;3.10;;;;;;;16.14;51.19;97356.75;5051175;28;20112;-73
2022/05/03 10:56:16;;;;;;;8.90;2.00;;;;;;;15.97;49.12;97339.31;5067383;28;20520;-74
2022/05/03 10:59:14;;;;;;;4.25;2.10;;;;;;;16.05;50.13;97352.16;5051008;28;20395;-73
2022/05/03 11:01:55;;;;;;;7.57;2.42;;;;;;;16.27;50.39;97341.19;5046010;28;20020;-74
2022/05/03 11:04:21;;;;;;;3.40;2.10;;;;;;;16.18;50.45;97348.22;5052285;28;20047;-74
2022/05/03 11:06:49;;;;;;;5.07;1.90;;;;;;;15.91;50.12;97344.38;5033726;28;20021;-74
2022/05/03 11:09:25;;;;;;;2.28;2.03;;;;;;;15.95;48.90;97346.69;5051807;28;20024;-74
2022/05/03 11:11:53;;;;;;;2.40;1.75;;;;;;;16.08;48.21;97346.50;5051802;28;20473;-74
2022/05/03 11:14:24;;;;;;;4.55;1.90;;;;;;;16.37;47.89;97338.50;5050603;28;20025;-75
2022/05/03 11:17:04;;;;;;;6.82;2.05;;;;;;;16.55;48.27;97345.88;5067111;28;20028;-75
2022/05/03 11:19:31;;;;;;;21.58;2.78;;;;;;;16.32;49.39;97341.63;5051589;28;20068;-75
2022/05/03 11:21:58;;;;;;;3.90;2.13;;;;;;;16.56;48.12;97344.03;5051820;28;20021;-75
2022/05/03 11:24:30;;;;;;;5.38;2.63;;;;;;;16.87;47.53;97339.44;5050671;28;20392;-75
2022/05/03 11:26:57;;;;;;;4.30;2.22;;;;;;;16.93;48.09;97338.88;5050214;28;20035;-75
2022/05/03 11:29:46;;;;;;;10.35;2.55;;;;;;;16.72;49.78;97350.63;5050646;28;20016;-75
2022/05/03 11:32:14;;;;;;;2.22;1.80;;;;;;;16.95;47.04;97331.50;5050355;28;20021;-74
2022/05/03 11:34:41;;;;;;;8.23;2.25;;;;;;;17.14;46.92;97331.50;5050200;28;20028;-75
2022/05/03 11:37:07;;;;;;;8.30;1.80;;;;;;;16.95;45.83;97315.28;5050313;28;20471;-74
2022/05/03 11:39:36;;;;;;;6.07;2.00;;;;;;;16.66;48.03;97334.13;5050029;28;20116;-74
2022/05/03 11:42:02;;;;;;;5.18;1.92;;;;;;;16.65;48.69;97330.56;5050124;28;20517;-75
2022/05/03 11:44:27;;;;;;;5.28;2.00;;;;;;;16.35;50.14;97354.88;5050181;28;20028;-75
2022/05/03 11:46:53;;;;;;;6.18;2.40;;;;;;;16.32;50.59;97338.06;5033225;28;20035;-75
2022/05/03 11:49:21;;;;;;;4.45;2.45;;;;;;;16.21;52.80;97357.94;5033382;28;20066;-75
2022/05/03 11:57:40;;;;;;;11.52;2.55;;;;;;;15.94;54.34;97366.56;5050274;28;20079;-75
2022/05/03 12:00:08;;;;;;;10.45;3.67;;;;;;;16.03;53.35;97359.50;5049886;28;20037;-75
2022/05/03 12:02:36;;;;;;;16.05;10.43;;;;;;;15.72;52.75;97356.75;5049947;28;20103;-80
2022/05/03 12:05:04;;;;;;;6.65;3.10;;;;;;;15.82;52.78;97355.97;5049789;28;20090;-76
2022/05/03 12:07:38;;;;;;;93.60;53.47;;;;;;;15.86;52.86;97347.50;5049586;28;20420;-76
2022/05/03 12:10:26;;;;;;;13.23;4.78;;;;;;;15.80;51.48;97355.25;5030268;28;20424;-77
2022/05/03 12:13:15;;;;;;;6.22;2.97;;;;;;;15.59;52.66;97350.72;5047312;28;20127;-77
2022/05/03 12:15:48;;;;;;;6.55;2.33;;;;;;;15.59;52.24;97339.09;5046642;28;20075;-77
2022/05/03 12:18:19;;;;;;;4.43;2.45;;;;;;;15.66;52.30;97343.81;5046719;28;20381;-78
2022/05/03 12:20:53;;;;;;;8.00;2.58;;;;;;;15.52;52.66;97343.28;5046409;28;20049;-77
2022/05/03 12:23:24;;;;;;;3.92;2.17;;;;;;;15.54;52.82;97347.56;5030205;28;20040;-78
2022/05/03 12:25:56;;;;;;;3.33;2.33;;;;;;;15.55;51.41;97343.88;5046741;28;20098;-77
2022/05/03 12:28:45;;;;;;;2.80;1.80;;;;;;;15.47;51.39;97350.88;5046947;28;20025;-80
2022/05/03 12:31:14;;;;;;;5.78;2.13;;;;;;;15.58;51.86;97335.53;5047081;28;20041;-80